Lazaropole, Macedonia
Current Conditions -  °F | °C
As of 5:00 PM on Friday 21 Nov 2014 (Local Time) from LWOH Reporting Station
Clear Clear  
Wind Chill: 48°   Ceiling: Unl
Heat Index: 48°   Visibility: 6mi
Dew Point: 32°   Wind: 3mph
Humidity: 54%   Direction: 300°WNW
Pressure: 30.09"   Gusts: NA
Location:  41.53°N, 20.7°E
Report Text: LWOH 211500Z 30003KT CAVOK 09/00 Q1019
Loading
Personal Weather Stations






























Interactive Weather Map New forecast layout! Learn more

10-Day Weather Forecast

Advertisements
Track Severe Weather on mobile